createdAt,value
2024-05-09T00:00:35.309Z,7.78
2024-05-09T00:03:30.191Z,7.75
2024-05-09T00:06:00.388Z,7.71
2024-05-09T00:08:31.786Z,7.68
2024-05-09T00:11:03.269Z,7.64
2024-05-09T00:13:34.435Z,7.61
2024-05-09T00:16:06.715Z,7.58
2024-05-09T00:18:37.983Z,7.55
2024-05-09T00:21:10.559Z,7.52
2024-05-09T00:23:42.184Z,7.49
2024-05-09T00:26:17.936Z,7.44
2024-05-09T00:28:49.297Z,7.37
2024-05-09T00:31:20.626Z,7.32
2024-05-09T00:33:51.675Z,7.25
2024-05-09T00:36:22.926Z,7.18
2024-05-09T00:38:53.871Z,7.10
2024-05-09T00:41:25.103Z,7.00
2024-05-09T00:43:56.117Z,6.94
2024-05-09T00:46:27.933Z,6.89
2024-05-09T00:48:59.703Z,6.86
2024-05-09T00:51:30.817Z,6.85
2024-05-09T00:54:02.468Z,6.84
2024-05-09T00:56:35.866Z,6.77
2024-05-09T00:59:07.312Z,6.62
2024-05-09T01:01:38.721Z,6.52
2024-05-09T01:04:10.824Z,6.46
2024-05-09T01:06:42.337Z,6.44
2024-05-09T01:09:13.403Z,6.43
2024-05-09T01:11:44.698Z,6.43
2024-05-09T01:14:16.053Z,6.45
2024-05-09T01:16:47.442Z,6.45
2024-05-09T01:19:26.991Z,6.45
2024-05-09T01:21:58.219Z,6.45
2024-05-09T01:24:29.353Z,6.45
2024-05-09T01:27:00.644Z,6.44
2024-05-09T01:29:31.807Z,6.43
2024-05-09T01:32:04.459Z,6.42
2024-05-09T01:34:35.622Z,6.41
2024-05-09T01:37:06.699Z,6.41
2024-05-09T01:39:37.764Z,6.37
2024-05-09T01:42:08.974Z,6.29
2024-05-09T01:44:39.895Z,6.23
2024-05-09T01:47:11.376Z,6.15
2024-05-09T01:49:41.285Z,6.10
2024-05-09T01:52:12.278Z,6.06
2024-05-09T01:54:43.633Z,6.02
2024-05-09T01:57:15.020Z,5.99
2024-05-09T01:59:46.109Z,5.96
2024-05-09T02:02:17.566Z,5.94
2024-05-09T02:04:48.191Z,5.88
2024-05-09T02:07:19.427Z,5.80
2024-05-09T02:09:53.638Z,5.75
2024-05-09T02:12:24.994Z,5.70
2024-05-09T02:14:54.917Z,5.60
2024-05-09T02:17:26.145Z,5.50
2024-05-09T02:19:57.379Z,5.46
2024-05-09T02:22:28.603Z,5.40
2024-05-09T02:24:59.684Z,5.35
2024-05-09T02:27:30.988Z,5.33
2024-05-09T02:30:01.993Z,5.33
2024-05-09T02:32:33.343Z,5.34
2024-05-09T02:35:04.501Z,5.36
2024-05-09T02:37:35.792Z,5.35
2024-05-09T02:40:11.725Z,5.35
2024-05-09T02:42:45.854Z,5.31
2024-05-09T02:45:17.098Z,5.26
2024-05-09T02:47:48.570Z,5.24
2024-05-09T02:50:26.575Z,5.23
2024-05-09T02:53:05.705Z,5.17
2024-05-09T02:55:37.173Z,5.12
2024-05-09T02:58:08.686Z,5.07
2024-05-09T03:00:41.318Z,5.05
2024-05-09T03:03:15.623Z,5.01
2024-05-09T03:05:49.262Z,4.99
2024-05-09T03:08:20.549Z,4.99
2024-05-09T03:10:51.527Z,4.99
2024-05-09T03:13:22.737Z,5.00
2024-05-09T03:15:53.794Z,4.97
2024-05-09T03:18:24.998Z,4.96
2024-05-09T03:20:56.221Z,4.94
2024-05-09T03:23:27.190Z,4.95
2024-05-09T03:25:58.566Z,4.97
2024-05-09T03:28:29.836Z,5.00
2024-05-09T03:31:01.023Z,5.00
2024-05-09T03:33:32.332Z,5.01
2024-05-09T03:36:09.034Z,5.02
2024-05-09T03:38:41.934Z,5.03
2024-05-09T03:41:14.580Z,5.04
2024-05-09T03:43:47.158Z,5.05
2024-05-09T03:46:18.198Z,5.07
2024-05-09T03:48:49.564Z,5.09
2024-05-09T03:51:20.715Z,5.12
2024-05-09T03:53:51.884Z,5.18
2024-05-09T03:56:23.239Z,5.22
2024-05-09T03:58:55.912Z,5.25
2024-05-09T04:01:29.640Z,5.27
2024-05-09T04:04:00.781Z,5.30
2024-05-09T04:06:32.000Z,5.34
2024-05-09T04:09:03.553Z,5.40
2024-05-09T04:11:33.255Z,5.45
2024-05-09T04:14:04.433Z,5.50
2024-05-09T04:16:35.613Z,5.56
2024-05-09T04:19:07.751Z,5.63
2024-05-09T04:21:38.989Z,5.70
2024-05-09T04:24:10.254Z,5.76
2024-05-09T04:26:41.229Z,5.85
2024-05-09T04:29:12.323Z,5.94
2024-05-09T04:31:43.652Z,6.05
2024-05-09T04:34:14.900Z,6.18
2024-05-09T04:36:46.184Z,6.34
2024-05-09T04:39:17.368Z,6.49
2024-05-09T04:41:48.501Z,6.66
2024-05-09T04:44:19.581Z,6.85
2024-05-09T04:46:50.855Z,7.08
2024-05-09T04:49:21.951Z,7.29
2024-05-09T04:51:53.227Z,7.52
2024-05-09T04:54:33.694Z,7.77
2024-05-09T04:57:07.989Z,8.07
2024-05-09T04:59:37.845Z,8.33
2024-05-09T05:02:09.796Z,8.57
2024-05-09T05:04:40.830Z,8.85
2024-05-09T05:07:12.183Z,9.10
2024-05-09T05:09:43.248Z,9.37
2024-05-09T05:12:28.650Z,9.65
2024-05-09T05:14:59.769Z,9.97
2024-05-09T05:17:31.266Z,10.25
2024-05-09T05:20:01.219Z,10.51
2024-05-09T05:22:32.984Z,10.72
2024-05-09T05:25:04.666Z,10.91
2024-05-09T05:27:35.719Z,11.08
2024-05-09T05:30:14.646Z,11.25
2024-05-09T05:32:48.956Z,11.46
2024-05-09T05:35:20.131Z,11.64
2024-05-09T05:37:51.329Z,11.83
2024-05-09T05:40:32.042Z,12.03
2024-05-09T05:43:08.184Z,12.25
2024-05-09T05:45:39.563Z,12.46
2024-05-09T05:48:09.774Z,12.70
2024-05-09T05:50:41.501Z,12.90
2024-05-09T05:53:11.322Z,13.07
2024-05-09T05:55:43.232Z,13.23
2024-05-09T05:58:15.229Z,13.42
2024-05-09T06:00:46.422Z,13.60
2024-05-09T06:03:17.872Z,13.82
2024-05-09T06:05:49.242Z,14.02
2024-05-09T06:08:20.860Z,14.22
2024-05-09T06:10:51.997Z,14.44
2024-05-09T06:13:23.030Z,14.69
2024-05-09T06:15:54.382Z,14.91
2024-05-09T06:18:24.558Z,15.08
2024-05-09T06:20:55.849Z,15.20
2024-05-09T06:23:26.956Z,15.36
2024-05-09T06:25:58.139Z,15.55
2024-05-09T06:28:29.585Z,15.70
2024-05-09T06:30:59.332Z,15.78
2024-05-09T06:33:30.662Z,15.75
2024-05-09T06:36:01.885Z,15.86
2024-05-09T06:38:33.556Z,16.03
2024-05-09T06:41:05.815Z,16.19
2024-05-09T06:43:38.011Z,16.22
2024-05-09T06:46:09.119Z,16.19
2024-05-09T06:48:40.628Z,16.22
2024-05-09T06:51:11.792Z,16.36
2024-05-09T06:53:43.139Z,16.53
2024-05-09T06:56:13.160Z,16.53
2024-05-09T06:58:44.418Z,16.62
2024-05-09T07:01:15.655Z,16.79
2024-05-09T07:03:47.110Z,16.95
2024-05-09T07:06:18.459Z,17.07
2024-05-09T07:08:48.793Z,17.18
2024-05-09T07:11:21.559Z,17.27
2024-05-09T07:13:53.568Z,17.30
2024-05-09T07:16:24.808Z,17.40
2024-05-09T07:18:56.388Z,17.44
2024-05-09T07:21:27.566Z,17.51
2024-05-09T07:23:58.872Z,17.63
2024-05-09T07:26:30.256Z,17.73
2024-05-09T07:29:01.702Z,17.76
2024-05-09T07:31:32.996Z,17.58
2024-05-09T07:34:02.836Z,17.59
2024-05-09T07:36:33.895Z,17.72
2024-05-09T07:39:05.419Z,17.87
2024-05-09T07:41:36.944Z,17.94
2024-05-09T07:44:08.312Z,17.95
2024-05-09T07:47:47.646Z,18.01
2024-05-09T07:54:41.336Z,18.09
2024-05-09T07:57:11.280Z,18.25
2024-05-09T07:59:42.496Z,18.29
2024-05-09T08:02:13.718Z,18.27
2024-05-09T08:04:44.989Z,18.31
2024-05-09T08:07:15.187Z,18.33
2024-05-09T08:09:47.432Z,18.27
2024-05-09T08:12:18.534Z,18.20
2024-05-09T08:14:48.294Z,18.15
2024-05-09T08:17:19.408Z,18.03
2024-05-09T08:19:49.062Z,18.06
2024-05-09T08:22:20.291Z,18.14
2024-05-09T08:24:50.140Z,18.27
2024-05-09T08:27:21.374Z,18.32
2024-05-09T08:29:51.102Z,18.31
2024-05-09T08:32:23.120Z,18.33
2024-05-09T08:34:54.057Z,18.35
2024-05-09T08:37:29.423Z,18.39
2024-05-09T08:40:04.143Z,18.47
2024-05-09T08:42:39.021Z,18.39
2024-05-09T08:45:13.242Z,18.36
2024-05-09T08:47:45.967Z,18.39
2024-05-09T08:50:28.917Z,18.38
2024-05-09T08:53:07.733Z,18.31
2024-05-09T08:55:42.041Z,18.24
2024-05-09T08:58:17.803Z,18.25
2024-05-09T09:00:49.780Z,18.21
2024-05-09T09:03:27.582Z,18.19
2024-05-09T09:06:02.895Z,18.26
2024-05-09T09:08:34.212Z,18.23
2024-05-09T09:11:04.394Z,18.22
2024-05-09T09:13:35.565Z,18.33
2024-05-09T09:16:06.418Z,18.46
2024-05-09T09:18:38.004Z,18.56
2024-05-09T09:21:13.347Z,18.58
2024-05-09T09:23:45.452Z,18.52
2024-05-09T09:26:18.902Z,18.54
2024-05-09T09:28:50.126Z,18.65
2024-05-09T09:31:21.822Z,18.76
2024-05-09T09:33:53.300Z,18.79
2024-05-09T09:36:24.692Z,18.73
2024-05-09T09:38:55.520Z,18.65
2024-05-09T09:41:30.425Z,18.64
2024-05-09T09:44:03.708Z,18.68
2024-05-09T09:46:35.448Z,18.76
2024-05-09T09:49:07.295Z,18.83
2024-05-09T09:51:43.333Z,18.86
2024-05-09T09:54:15.736Z,18.89
2024-05-09T09:56:48.523Z,18.98
2024-05-09T09:59:22.039Z,19.14
2024-05-09T10:01:53.261Z,19.28
2024-05-09T10:04:24.811Z,19.35
2024-05-09T10:07:02.130Z,19.20
2024-05-09T10:09:34.344Z,19.11
2024-05-09T10:12:13.352Z,19.16
2024-05-09T10:14:50.767Z,19.14
2024-05-09T10:17:22.129Z,19.17
2024-05-09T10:20:11.713Z,19.15
2024-05-09T10:22:50.543Z,19.05
2024-05-09T10:25:23.380Z,19.05
2024-05-09T10:27:57.860Z,19.14
2024-05-09T10:30:34.263Z,19.21
2024-05-09T10:49:45.630Z,19.22
2024-05-09T10:52:20.499Z,19.18
2024-05-09T10:54:54.000Z,19.24
2024-05-09T10:57:27.010Z,19.26
2024-05-09T11:00:00.752Z,19.35
2024-05-09T11:02:33.024Z,19.45
2024-05-09T11:05:06.185Z,19.53
2024-05-09T11:07:37.732Z,19.56
2024-05-09T11:10:14.488Z,19.65
2024-05-09T11:12:47.021Z,19.75
2024-05-09T11:15:18.762Z,19.86
2024-05-09T11:17:50.411Z,19.93
2024-05-09T11:20:29.100Z,19.94
2024-05-09T11:23:01.423Z,20.00
2024-05-09T11:25:33.809Z,20.00
2024-05-09T11:28:05.833Z,20.12
2024-05-09T11:30:37.584Z,20.25
2024-05-09T11:33:12.093Z,20.37
2024-05-09T11:35:43.790Z,20.42
2024-05-09T11:38:15.359Z,20.45
2024-05-09T11:40:46.808Z,20.47
2024-05-09T11:43:18.454Z,20.52
2024-05-09T11:45:50.251Z,20.61
2024-05-09T11:48:22.135Z,20.77
2024-05-09T11:50:54.930Z,20.94
2024-05-09T11:53:26.759Z,21.06
2024-05-09T11:55:58.112Z,21.17
2024-05-09T11:58:34.082Z,21.28
2024-05-09T12:01:05.847Z,21.30
2024-05-09T12:03:38.513Z,21.29
2024-05-09T12:06:10.039Z,21.17
2024-05-09T12:08:41.897Z,21.00
2024-05-09T12:11:14.128Z,20.83
2024-05-09T12:13:45.651Z,20.78
2024-05-09T12:16:17.245Z,20.70
2024-05-09T12:18:48.683Z,20.68
2024-05-09T12:21:20.498Z,20.71
2024-05-09T12:23:52.116Z,20.76
2024-05-09T12:26:23.591Z,20.70
2024-05-09T12:28:54.965Z,20.69
2024-05-09T12:31:26.812Z,20.61
2024-05-09T12:34:00.116Z,20.58
2024-05-09T12:36:31.754Z,20.58
2024-05-09T12:39:05.714Z,20.56
2024-05-09T12:41:37.397Z,20.66
2024-05-09T12:44:08.766Z,20.81
2024-05-09T12:46:40.156Z,20.91
2024-05-09T12:49:13.246Z,20.95
2024-05-09T12:51:45.688Z,21.01
2024-05-09T12:54:16.793Z,21.14
2024-05-09T12:56:48.196Z,21.28
2024-05-09T12:59:19.829Z,21.38
2024-05-09T13:01:51.452Z,21.58
2024-05-09T13:04:23.674Z,21.74
2024-05-09T13:06:55.219Z,21.86
2024-05-09T13:09:26.708Z,21.90
2024-05-09T13:11:58.148Z,21.89
2024-05-09T13:14:29.627Z,21.78
2024-05-09T13:17:01.025Z,21.68
2024-05-09T13:19:32.481Z,21.50
2024-05-09T13:22:04.297Z,21.43
2024-05-09T13:24:35.672Z,21.37
2024-05-09T13:27:07.469Z,21.26
2024-05-09T13:29:41.095Z,21.16
2024-05-09T13:32:14.399Z,21.14
2024-05-09T13:34:45.968Z,21.10
2024-05-09T13:37:17.663Z,21.00
2024-05-09T13:39:49.305Z,20.97
2024-05-09T13:42:20.740Z,20.97
2024-05-09T13:44:52.295Z,20.95
2024-05-09T13:47:24.273Z,20.87
2024-05-09T13:49:56.208Z,20.75
2024-05-09T13:52:27.757Z,20.65
2024-05-09T13:54:59.593Z,20.60
2024-05-09T13:57:31.513Z,20.53
2024-05-09T14:00:06.811Z,20.49
2024-05-09T14:02:43.996Z,20.43
2024-05-09T14:05:16.037Z,20.36
2024-05-09T14:07:47.938Z,20.30
2024-05-09T14:10:23.489Z,20.24
2024-05-09T14:13:01.035Z,20.15
2024-05-09T14:15:32.740Z,20.11
2024-05-09T14:18:04.352Z,20.08
2024-05-09T14:20:35.594Z,19.99
2024-05-09T14:23:08.163Z,19.96
2024-05-09T14:25:42.766Z,19.94
2024-05-09T14:28:15.384Z,19.94
2024-05-09T14:30:47.183Z,19.92
2024-05-09T14:33:23.504Z,19.93
2024-05-09T14:35:55.483Z,19.93
2024-05-09T14:38:27.413Z,19.90
2024-05-09T14:40:58.861Z,19.88
2024-05-09T14:43:30.318Z,19.91
2024-05-09T14:46:01.707Z,19.86
2024-05-09T14:48:33.479Z,19.80
2024-05-09T14:51:05.286Z,19.74
2024-05-09T14:53:36.837Z,19.69
2024-05-09T14:56:09.289Z,19.64
2024-05-09T14:58:40.865Z,19.55
2024-05-09T15:01:12.288Z,19.48
2024-05-09T15:03:44.396Z,19.44
2024-05-09T15:06:17.805Z,19.40
2024-05-09T15:08:57.147Z,19.35
2024-05-09T15:11:28.404Z,19.33
2024-05-09T15:14:00.104Z,19.29
2024-05-09T15:16:31.941Z,19.28
2024-05-09T15:19:03.666Z,19.25
2024-05-09T15:21:35.683Z,19.16
2024-05-09T15:24:08.083Z,19.05
2024-05-09T15:26:40.041Z,18.97
2024-05-09T15:29:11.376Z,18.90
2024-05-09T15:31:42.988Z,18.87
2024-05-09T15:34:14.293Z,18.85
2024-05-09T15:36:47.954Z,18.84
2024-05-09T15:39:19.855Z,18.77
2024-05-09T15:41:52.925Z,18.71
2024-05-09T15:44:26.236Z,18.70
2024-05-09T15:46:57.553Z,18.67
2024-05-09T15:49:29.218Z,18.65
2024-05-09T15:52:00.972Z,18.59
2024-05-09T15:54:32.281Z,18.55
2024-05-09T15:57:02.401Z,18.55
2024-05-09T15:59:33.491Z,18.52
2024-05-09T16:02:03.721Z,18.49
2024-05-09T16:04:35.349Z,18.40
2024-05-09T16:07:06.922Z,18.34
2024-05-09T16:09:38.748Z,18.26
2024-05-09T16:12:10.447Z,18.18
2024-05-09T16:14:41.837Z,18.15
2024-05-09T16:17:14.100Z,18.10
2024-05-09T16:19:45.580Z,18.06
2024-05-09T16:22:17.358Z,18.03
2024-05-09T16:24:49.020Z,18.01
2024-05-09T16:27:19.146Z,17.99
2024-05-09T16:29:50.825Z,17.94
2024-05-09T16:32:22.260Z,17.94
2024-05-09T16:34:53.850Z,17.92
2024-05-09T16:37:27.522Z,17.89
2024-05-09T16:40:00.292Z,17.81
2024-05-09T16:42:32.919Z,17.75
2024-05-09T16:45:04.309Z,17.69
2024-05-09T16:47:36.093Z,17.62
2024-05-09T16:50:10.761Z,17.54
2024-05-09T16:52:44.557Z,17.47
2024-05-09T16:55:16.528Z,17.42
2024-05-09T16:57:48.125Z,17.38
2024-05-09T17:00:30.905Z,17.34
2024-05-09T17:03:11.935Z,17.28
2024-05-09T17:05:45.232Z,17.22
2024-05-09T17:08:19.528Z,17.17
2024-05-09T17:10:51.292Z,17.14
2024-05-09T17:13:23.475Z,17.09
2024-05-09T17:15:55.759Z,17.04
2024-05-09T17:18:28.088Z,17.01
2024-05-09T17:20:59.776Z,16.96
2024-05-09T17:23:34.348Z,16.91
2024-05-09T17:26:06.809Z,16.84
2024-05-09T17:28:38.645Z,16.80
2024-05-09T17:31:10.311Z,16.73
2024-05-09T17:33:42.486Z,16.68
2024-05-09T17:36:13.975Z,16.64
2024-05-09T17:38:43.947Z,16.62
2024-05-09T17:41:15.290Z,16.59
2024-05-09T17:43:46.851Z,16.57
2024-05-09T17:46:18.244Z,16.54
2024-05-09T17:48:49.682Z,16.51
2024-05-09T17:51:20.870Z,16.43
2024-05-09T17:53:52.335Z,16.37
2024-05-09T17:56:23.681Z,16.27
2024-05-09T17:58:53.763Z,16.17
2024-05-09T18:01:25.552Z,16.05
2024-05-09T18:03:56.974Z,15.93
2024-05-09T18:06:28.902Z,15.79
2024-05-09T18:09:00.212Z,15.68
2024-05-09T18:11:30.581Z,15.57
2024-05-09T18:14:01.917Z,15.45
2024-05-09T18:16:33.505Z,15.33
2024-05-09T18:19:05.424Z,15.23
2024-05-09T18:21:37.028Z,15.15
2024-05-09T18:24:09.958Z,15.07
2024-05-09T18:26:41.844Z,14.96
2024-05-09T18:29:13.207Z,14.90
2024-05-09T18:31:44.810Z,14.84
2024-05-09T18:34:16.278Z,14.75
2024-05-09T18:36:47.831Z,14.64
2024-05-09T18:39:19.301Z,14.52
2024-05-09T18:41:49.748Z,14.41
2024-05-09T18:44:21.185Z,14.27
2024-05-09T18:46:52.836Z,14.16
2024-05-09T18:49:24.335Z,14.08
2024-05-09T18:51:55.907Z,14.01
2024-05-09T18:54:25.865Z,13.92
2024-05-09T18:56:56.991Z,13.81
2024-05-09T18:59:28.357Z,13.69
2024-05-09T19:02:00.005Z,13.53
2024-05-09T19:04:32.279Z,13.40
2024-05-09T19:07:04.494Z,13.30
2024-05-09T19:09:36.202Z,13.20
2024-05-09T19:12:09.352Z,13.06
2024-05-09T19:14:40.668Z,12.98
2024-05-09T19:17:10.618Z,12.94
2024-05-09T19:19:41.865Z,12.85
2024-05-09T19:22:13.058Z,12.75
2024-05-09T19:24:44.518Z,12.66
2024-05-09T19:27:14.469Z,12.63
2024-05-09T19:29:46.015Z,12.54
2024-05-09T19:32:16.138Z,12.47
2024-05-09T19:34:47.767Z,12.35
2024-05-09T19:37:17.743Z,12.27
2024-05-09T19:39:48.960Z,12.18
2024-05-09T19:42:20.284Z,12.13
2024-05-09T19:44:51.522Z,12.09
2024-05-09T19:47:22.833Z,12.03
2024-05-09T19:49:54.521Z,11.95
2024-05-09T19:52:26.882Z,11.89
2024-05-09T19:54:58.430Z,11.84
2024-05-09T19:57:30.319Z,11.79
2024-05-09T20:00:01.724Z,11.74
2024-05-09T20:02:31.845Z,11.68
2024-05-09T20:05:04.130Z,11.60
2024-05-09T20:07:37.402Z,11.53
2024-05-09T20:10:16.606Z,11.45
2024-05-09T20:12:54.733Z,11.39
2024-05-09T20:15:26.304Z,11.32
2024-05-09T20:17:57.669Z,11.26
2024-05-09T20:20:35.563Z,11.20
2024-05-09T20:23:10.990Z,11.09
2024-05-09T20:25:43.352Z,11.02
2024-05-09T20:28:15.461Z,10.95
2024-05-09T20:30:46.853Z,10.87
2024-05-09T20:33:18.481Z,10.80
2024-05-09T20:35:48.464Z,10.73
2024-05-09T20:38:19.777Z,10.65
2024-05-09T20:40:51.205Z,10.59
2024-05-09T20:43:21.421Z,10.53
2024-05-09T20:45:53.300Z,10.46
2024-05-09T20:48:24.824Z,10.41
2024-05-09T20:50:54.976Z,10.35
2024-05-09T20:53:26.600Z,10.27
2024-05-09T20:55:56.428Z,10.22
2024-05-09T20:58:28.853Z,10.15
2024-05-09T21:01:01.206Z,10.07
2024-05-09T21:03:35.273Z,10.01
2024-05-09T21:06:07.560Z,9.92
2024-05-09T21:08:39.325Z,9.87
2024-05-09T21:11:10.947Z,9.79
2024-05-09T21:13:42.695Z,9.72
2024-05-09T21:16:14.513Z,9.65
2024-05-09T21:18:46.319Z,9.58
2024-05-09T21:21:17.780Z,9.54
2024-05-09T21:23:49.225Z,9.49
2024-05-09T21:26:23.521Z,9.42
2024-05-09T21:28:55.418Z,9.34
2024-05-09T21:31:26.872Z,9.24
2024-05-09T21:33:57.291Z,9.15
2024-05-09T21:36:28.758Z,9.07
2024-05-09T21:39:00.107Z,9.03
2024-05-09T21:41:31.654Z,8.99
2024-05-09T21:44:02.957Z,8.95
2024-05-09T21:46:34.409Z,8.92
2024-05-09T21:49:04.523Z,8.87
2024-05-09T21:51:36.123Z,8.79
2024-05-09T21:54:07.410Z,8.75
2024-05-09T21:56:38.580Z,8.70
2024-05-09T21:59:10.254Z,8.68
2024-05-09T22:01:41.520Z,8.64
2024-05-09T22:04:12.964Z,8.59
2024-05-09T22:06:44.833Z,8.54
2024-05-09T22:09:16.375Z,8.49
2024-05-09T22:11:48.062Z,8.44
2024-05-09T22:14:20.963Z,8.36
2024-05-09T22:16:52.314Z,8.32
2024-05-09T22:19:23.476Z,8.27
2024-05-09T22:21:55.403Z,8.21
2024-05-09T22:24:27.172Z,8.13
2024-05-09T22:26:57.092Z,8.07
2024-05-09T22:29:28.935Z,8.00
2024-05-09T22:32:00.225Z,7.96
2024-05-09T22:34:32.215Z,7.88
2024-05-09T22:37:03.932Z,7.77
2024-05-09T22:39:35.482Z,7.72
2024-05-09T22:42:06.179Z,7.70
2024-05-09T22:44:37.905Z,7.64
2024-05-09T22:47:09.519Z,7.59
2024-05-09T22:49:40.999Z,7.56
2024-05-09T22:52:12.597Z,7.53
2024-05-09T22:54:45.000Z,7.52
2024-05-09T22:57:16.429Z,7.50
2024-05-09T22:59:48.089Z,7.47
2024-05-09T23:02:19.453Z,7.43
2024-05-09T23:04:49.650Z,7.37
2024-05-09T23:07:21.142Z,7.31
2024-05-09T23:09:52.760Z,7.26
2024-05-09T23:12:22.803Z,7.24
2024-05-09T23:14:54.278Z,7.19
2024-05-09T23:17:25.804Z,7.16
2024-05-09T23:19:55.842Z,7.13
2024-05-09T23:22:27.113Z,7.07
2024-05-09T23:24:58.556Z,7.02
2024-05-09T23:27:28.743Z,6.99
2024-05-09T23:30:00.279Z,6.95
2024-05-09T23:32:30.621Z,6.93
2024-05-09T23:35:02.416Z,6.88
2024-05-09T23:37:32.492Z,6.86
2024-05-09T23:40:06.996Z,6.82
2024-05-09T23:42:42.663Z,6.82
2024-05-09T23:45:14.011Z,6.79
2024-05-09T23:47:45.493Z,6.76
2024-05-09T23:50:20.551Z,6.74
2024-05-09T23:52:55.613Z,6.70
2024-05-09T23:55:27.004Z,6.66
2024-05-09T23:57:58.367Z,6.63
